createdAt,value
2024-01-20T00:00:28.168Z,-3.74
2024-01-20T00:01:28.157Z,-3.69
2024-01-20T00:02:28.141Z,-3.72
2024-01-20T00:03:28.163Z,-3.72
2024-01-20T00:04:28.175Z,-3.79
2024-01-20T00:05:28.191Z,-3.74
2024-01-20T00:06:28.166Z,-3.77
2024-01-20T00:07:28.084Z,-3.81
2024-01-20T00:08:28.131Z,-3.87
2024-01-20T00:09:34.802Z,-3.87
2024-01-20T00:10:28.078Z,-3.78
2024-01-20T00:11:28.047Z,-3.79
2024-01-20T00:12:28.046Z,-3.74
2024-01-20T00:13:28.044Z,-3.89
2024-01-20T00:14:28.024Z,-3.97
2024-01-20T00:15:28.021Z,-4.05
2024-01-20T00:16:28.017Z,-4.07
2024-01-20T00:17:28.690Z,-4.18
2024-01-20T00:18:28.147Z,-4.14
2024-01-20T00:19:28.018Z,-4.18
2024-01-20T00:20:27.990Z,-4.25
2024-01-20T00:21:27.950Z,-4.21
2024-01-20T00:22:27.961Z,-4.17
2024-01-20T00:23:27.971Z,-4.17
2024-01-20T00:24:27.931Z,-4.20
2024-01-20T00:25:27.916Z,-4.23
2024-01-20T00:26:27.921Z,-4.21
2024-01-20T00:27:27.907Z,-4.18
2024-01-20T00:28:27.902Z,-4.17
2024-01-20T00:29:27.957Z,-4.17
2024-01-20T00:30:27.904Z,-4.20
2024-01-20T00:31:27.915Z,-4.15
2024-01-20T00:32:28.090Z,-4.18
2024-01-20T00:33:27.983Z,-4.21
2024-01-20T00:34:27.869Z,-4.23
2024-01-20T00:35:27.904Z,-4.20
2024-01-20T00:36:27.886Z,-4.21
2024-01-20T00:37:27.805Z,-4.14
2024-01-20T00:38:27.844Z,-4.15
2024-01-20T00:39:27.815Z,-4.15
2024-01-20T00:40:27.801Z,-4.14
2024-01-20T00:41:27.827Z,-4.15
2024-01-20T00:42:27.771Z,-4.15
2024-01-20T00:43:27.753Z,-4.06
2024-01-20T00:44:27.750Z,-4.12
2024-01-20T00:45:27.746Z,-4.05
2024-01-20T00:46:27.748Z,-4.05
2024-01-20T00:47:27.758Z,-4.09
2024-01-20T00:48:27.727Z,-4.12
2024-01-20T00:49:27.694Z,-4.06
2024-01-20T00:50:27.720Z,-4.02
2024-01-20T00:51:27.671Z,-4.05
2024-01-20T00:52:27.664Z,-4.02
2024-01-20T00:53:27.656Z,-3.99
2024-01-20T00:54:27.651Z,-3.99
2024-01-20T00:55:27.661Z,-4.05
2024-01-20T00:56:27.654Z,-4.05
2024-01-20T00:57:27.615Z,-4.03
2024-01-20T00:58:27.613Z,-3.99
2024-01-20T00:59:27.618Z,-3.96
2024-01-20T01:00:27.610Z,-3.97
2024-01-20T01:01:27.574Z,-3.96
2024-01-20T01:02:27.622Z,-3.92
2024-01-20T01:03:27.580Z,-3.91
2024-01-20T01:04:27.567Z,-3.96
2024-01-20T01:05:27.564Z,-3.94
2024-01-20T01:06:27.560Z,-3.97
2024-01-20T01:07:27.519Z,-3.99
2024-01-20T01:08:27.525Z,-3.94
2024-01-20T01:09:27.514Z,-3.97
2024-01-20T01:10:27.495Z,-3.94
2024-01-20T01:11:27.480Z,-3.94
2024-01-20T01:12:27.474Z,-3.97
2024-01-20T01:13:27.480Z,-3.94
2024-01-20T01:14:27.580Z,-3.94
2024-01-20T01:15:27.440Z,-3.99
2024-01-20T01:16:27.439Z,-3.91
2024-01-20T01:17:27.922Z,-3.96
2024-01-20T01:18:27.433Z,-3.89
2024-01-20T01:19:27.417Z,-3.99
2024-01-20T01:20:27.460Z,-3.92
2024-01-20T01:21:27.392Z,-3.94
2024-01-20T01:22:27.439Z,-3.91
2024-01-20T01:23:27.823Z,-4.00
2024-01-20T01:24:27.363Z,-3.91
2024-01-20T01:25:27.354Z,-3.92
2024-01-20T01:26:29.750Z,-3.85
2024-01-20T01:27:27.451Z,-3.82
2024-01-20T01:28:27.336Z,-3.94
2024-01-20T01:29:27.399Z,-3.79
2024-01-20T01:30:27.305Z,-3.84
2024-01-20T01:31:27.389Z,-3.81
2024-01-20T01:32:27.439Z,-3.82
2024-01-20T01:33:27.317Z,-3.77
2024-01-20T01:34:27.270Z,-3.70
2024-01-20T01:35:27.275Z,-3.70
2024-01-20T01:36:27.254Z,-3.69
2024-01-20T01:37:27.247Z,-3.72
2024-01-20T01:38:27.228Z,-3.69
2024-01-20T01:39:27.211Z,-3.60
2024-01-20T01:40:27.208Z,-3.55
2024-01-20T01:41:27.214Z,-3.51
2024-01-20T01:42:27.203Z,-3.57
2024-01-20T01:43:27.205Z,-3.52
2024-01-20T01:44:27.165Z,-3.44
2024-01-20T01:45:27.172Z,-3.48
2024-01-20T01:46:27.161Z,-3.39
2024-01-20T01:47:27.159Z,-3.29
2024-01-20T01:48:27.131Z,-3.31
2024-01-20T01:49:27.131Z,-3.23
2024-01-20T01:50:27.161Z,-3.13
2024-01-20T01:51:27.115Z,-3.13
2024-01-20T01:52:27.087Z,-3.13
2024-01-20T01:53:27.084Z,-3.08
2024-01-20T01:54:27.076Z,-3.06
2024-01-20T01:55:27.073Z,-3.05
2024-01-20T01:56:27.058Z,-3.01
2024-01-20T01:57:27.074Z,-2.94
2024-01-20T01:58:27.037Z,-2.98
2024-01-20T01:59:27.023Z,-2.87
2024-01-20T02:00:27.077Z,-2.87
2024-01-20T02:01:27.001Z,-2.82
2024-01-20T02:02:26.992Z,-2.80
2024-01-20T02:03:27.110Z,-2.74
2024-01-20T02:04:27.060Z,-2.82
2024-01-20T02:05:26.987Z,-2.72
2024-01-20T02:06:26.996Z,-2.72
2024-01-20T02:07:26.949Z,-2.76
2024-01-20T02:08:26.926Z,-2.76
2024-01-20T02:09:27.084Z,-2.72
2024-01-20T02:10:26.942Z,-2.72
2024-01-20T02:11:26.910Z,-2.64
2024-01-20T02:12:26.956Z,-2.69
2024-01-20T02:13:26.889Z,-2.70
2024-01-20T02:14:26.900Z,-2.59
2024-01-20T02:15:26.916Z,-2.58
2024-01-20T02:16:26.855Z,-2.56
2024-01-20T02:17:26.854Z,-2.55
2024-01-20T02:18:26.915Z,-2.59
2024-01-20T02:19:26.871Z,-2.55
2024-01-20T02:20:26.820Z,-2.56
2024-01-20T02:21:26.857Z,-2.58
2024-01-20T02:22:26.808Z,-2.61
2024-01-20T02:23:26.808Z,-2.63
2024-01-20T02:24:26.846Z,-2.66
2024-01-20T02:25:26.776Z,-2.64
2024-01-20T02:26:26.752Z,-2.63
2024-01-20T02:27:26.796Z,-2.61
2024-01-20T02:28:26.756Z,-2.66
2024-01-20T02:29:26.746Z,-2.69
2024-01-20T02:30:26.743Z,-2.66
2024-01-20T02:31:26.740Z,-2.76
2024-01-20T02:32:26.751Z,-2.76
2024-01-20T02:33:26.793Z,-2.76
2024-01-20T02:34:26.804Z,-2.85
2024-01-20T02:35:26.684Z,-2.82
2024-01-20T02:36:26.688Z,-2.80
2024-01-20T02:37:26.658Z,-2.90
2024-01-20T02:38:26.653Z,-2.91
2024-01-20T02:39:26.663Z,-2.87
2024-01-20T02:40:26.619Z,-2.91
2024-01-20T02:41:26.627Z,-2.92
2024-01-20T02:42:26.710Z,-2.95
2024-01-20T02:43:26.615Z,-2.91
2024-01-20T02:44:26.587Z,-2.91
2024-01-20T02:45:26.596Z,-2.97
2024-01-20T02:46:26.562Z,-2.91
2024-01-20T02:47:26.597Z,-2.84
2024-01-20T02:48:26.688Z,-2.90
2024-01-20T02:49:26.642Z,-2.90
2024-01-20T02:50:26.553Z,-2.94
2024-01-20T02:51:26.556Z,-2.91
2024-01-20T02:52:26.511Z,-2.92
2024-01-20T02:53:26.510Z,-2.90
2024-01-20T02:54:26.541Z,-2.91
2024-01-20T02:55:26.493Z,-2.91
2024-01-20T02:56:26.531Z,-2.92
2024-01-20T02:57:26.525Z,-2.92
2024-01-20T02:58:26.461Z,-2.87
2024-01-20T02:59:26.449Z,-2.91
2024-01-20T03:00:26.484Z,-2.87
2024-01-20T03:01:26.677Z,-2.87
2024-01-20T03:02:26.426Z,-2.87
2024-01-20T03:03:26.461Z,-2.88
2024-01-20T03:04:26.441Z,-2.85
2024-01-20T03:05:26.463Z,-2.87
2024-01-20T03:06:26.450Z,-2.91
2024-01-20T03:07:26.375Z,-2.84
2024-01-20T03:08:26.368Z,-2.82
2024-01-20T03:09:26.433Z,-2.80
2024-01-20T03:10:26.371Z,-2.84
2024-01-20T03:11:26.367Z,-2.84
2024-01-20T03:12:26.348Z,-2.80
2024-01-20T03:13:26.324Z,-2.84
2024-01-20T03:14:26.318Z,-2.74
2024-01-20T03:15:26.427Z,-2.77
2024-01-20T03:16:26.283Z,-2.82
2024-01-20T03:17:26.326Z,-2.80
2024-01-20T03:18:26.312Z,-2.74
2024-01-20T03:19:26.279Z,-2.72
2024-01-20T03:20:26.265Z,-2.70
2024-01-20T03:21:26.290Z,-2.72
2024-01-20T03:22:26.255Z,-2.74
2024-01-20T03:23:26.222Z,-2.72
2024-01-20T03:24:26.295Z,-2.77
2024-01-20T03:25:26.247Z,-2.74
2024-01-20T03:26:26.190Z,-2.85
2024-01-20T03:27:26.307Z,-2.79
2024-01-20T03:28:26.169Z,-2.85
2024-01-20T03:29:26.184Z,-2.88
2024-01-20T03:30:26.177Z,-2.88
2024-01-20T03:31:26.152Z,-2.84
2024-01-20T03:32:26.163Z,-2.92
2024-01-20T03:33:26.322Z,-2.90
2024-01-20T03:34:26.200Z,-2.91
2024-01-20T03:35:26.113Z,-2.91
2024-01-20T03:36:26.143Z,-2.91
2024-01-20T03:37:26.091Z,-2.88
2024-01-20T03:38:26.095Z,-2.95
2024-01-20T03:39:26.147Z,-2.94
2024-01-20T03:40:26.888Z,-2.90
2024-01-20T03:41:26.053Z,-2.95
2024-01-20T03:42:26.070Z,-2.95
2024-01-20T03:43:26.046Z,-2.90
2024-01-20T03:44:26.019Z,-2.92
2024-01-20T03:45:26.029Z,-2.92
2024-01-20T03:46:26.007Z,-2.88
2024-01-20T03:47:26.009Z,-2.97
2024-01-20T03:48:26.114Z,-2.87
2024-01-20T03:49:26.077Z,-2.92
2024-01-20T03:50:26.052Z,-2.95
2024-01-20T03:51:25.970Z,-2.98
2024-01-20T03:52:25.959Z,-2.97
2024-01-20T03:53:25.959Z,-2.94
2024-01-20T03:54:25.948Z,-2.88
2024-01-20T03:55:25.917Z,-2.74
2024-01-20T03:56:25.907Z,-2.88
2024-01-20T03:57:25.916Z,-2.82
2024-01-20T03:58:25.888Z,-2.82
2024-01-20T03:59:25.881Z,-2.76
2024-01-20T04:00:25.891Z,-2.84
2024-01-20T04:01:25.862Z,-2.80
2024-01-20T04:02:25.889Z,-2.84
2024-01-20T04:03:25.882Z,-2.79
2024-01-20T04:04:25.847Z,-2.80
2024-01-20T04:05:25.969Z,-2.82
2024-01-20T04:06:25.858Z,-2.79
2024-01-20T04:07:25.829Z,-2.69
2024-01-20T04:08:25.792Z,-2.72
2024-01-20T04:09:25.809Z,-2.66
2024-01-20T04:10:25.764Z,-2.69
2024-01-20T04:11:25.799Z,-2.63
2024-01-20T04:12:25.867Z,-2.56
2024-01-20T04:13:25.743Z,-2.52
2024-01-20T04:14:25.763Z,-2.58
2024-01-20T04:15:25.746Z,-2.56
2024-01-20T04:16:25.723Z,-2.54
2024-01-20T04:17:25.743Z,-2.51
2024-01-20T04:18:25.808Z,-2.55
2024-01-20T04:19:25.784Z,-2.54
2024-01-20T04:20:25.709Z,-2.52
2024-01-20T04:21:25.748Z,-2.52
2024-01-20T04:22:25.652Z,-2.48
2024-01-20T04:23:25.649Z,-2.48
2024-01-20T04:24:25.651Z,-2.48
2024-01-20T04:25:25.653Z,-2.55
2024-01-20T04:26:25.629Z,-2.55
2024-01-20T04:27:25.637Z,-2.43
2024-01-20T04:28:25.606Z,-2.48
2024-01-20T04:29:25.597Z,-2.46
2024-01-20T04:30:26.218Z,-2.49
2024-01-20T04:31:25.583Z,-2.48
2024-01-20T04:32:25.563Z,-2.43
2024-01-20T04:33:25.635Z,-2.45
2024-01-20T04:34:25.649Z,-2.43
2024-01-20T04:35:25.551Z,-2.43
2024-01-20T04:36:25.583Z,-2.41
2024-01-20T04:37:25.519Z,-2.46
2024-01-20T04:38:25.505Z,-2.38
2024-01-20T04:39:25.542Z,-2.37
2024-01-20T04:40:25.486Z,-2.37
2024-01-20T04:41:25.486Z,-2.38
2024-01-20T04:42:25.494Z,-2.38
2024-01-20T04:43:25.468Z,-2.38
2024-01-20T04:44:25.477Z,-2.37
2024-01-20T04:45:25.458Z,-2.34
2024-01-20T04:46:25.430Z,-2.27
2024-01-20T04:47:25.460Z,-2.27
2024-01-20T04:48:25.575Z,-2.33
2024-01-20T04:49:25.506Z,-2.30
2024-01-20T04:50:25.397Z,-2.26
2024-01-20T04:51:25.658Z,-2.27
2024-01-20T04:52:25.370Z,-2.24
2024-01-20T04:53:25.380Z,-2.33
2024-01-20T04:54:25.384Z,-2.38
2024-01-20T04:55:25.362Z,-2.41
2024-01-20T04:56:25.337Z,-2.41
2024-01-20T04:57:25.331Z,-2.40
2024-01-20T04:58:25.326Z,-2.46
2024-01-20T04:59:25.311Z,-2.38
2024-01-20T05:00:25.316Z,-2.38
2024-01-20T05:01:25.311Z,-2.40
2024-01-20T05:02:25.601Z,-2.41
2024-01-20T05:03:25.329Z,-2.40
2024-01-20T05:04:25.313Z,-2.46
2024-01-20T05:05:25.248Z,-2.37
2024-01-20T05:06:25.431Z,-2.33
2024-01-20T05:07:25.258Z,-2.38
2024-01-20T05:08:25.233Z,-2.41
2024-01-20T05:09:25.235Z,-2.38
2024-01-20T05:10:25.199Z,-2.38
2024-01-20T05:11:25.210Z,-2.41
2024-01-20T05:12:25.238Z,-2.43
2024-01-20T05:13:25.169Z,-2.43
2024-01-20T05:14:25.154Z,-2.46
2024-01-20T05:15:25.179Z,-2.48
2024-01-20T05:16:25.159Z,-2.45
2024-01-20T05:17:25.154Z,-2.45
2024-01-20T05:18:25.242Z,-2.52
2024-01-20T05:19:25.855Z,-2.51
2024-01-20T05:20:25.136Z,-2.51
2024-01-20T05:21:25.203Z,-2.45
2024-01-20T05:22:25.104Z,-2.55
2024-01-20T05:23:25.076Z,-2.48
2024-01-20T05:24:25.134Z,-2.55
2024-01-20T05:25:25.072Z,-2.56
2024-01-20T05:26:25.065Z,-2.61
2024-01-20T05:27:25.056Z,-2.64
2024-01-20T05:28:25.033Z,-2.70
2024-01-20T05:29:25.024Z,-2.72
2024-01-20T05:30:25.059Z,-2.70
2024-01-20T05:31:25.021Z,-2.64
2024-01-20T05:32:25.039Z,-2.72
2024-01-20T05:33:25.112Z,-2.66
2024-01-20T05:34:25.084Z,-2.64
2024-01-20T05:35:24.978Z,-2.63
2024-01-20T05:36:24.973Z,-2.59
2024-01-20T05:37:24.947Z,-2.64
2024-01-20T05:38:24.939Z,-2.63
2024-01-20T05:39:24.945Z,-2.67
2024-01-20T05:40:24.959Z,-2.63
2024-01-20T05:41:24.906Z,-2.59
2024-01-20T05:42:24.914Z,-2.61
2024-01-20T05:43:25.072Z,-2.64
2024-01-20T05:44:24.925Z,-2.59
2024-01-20T05:45:24.928Z,-2.59
2024-01-20T05:46:24.863Z,-2.64
2024-01-20T05:47:24.855Z,-2.67
2024-01-20T05:48:24.907Z,-2.66
2024-01-20T05:49:25.391Z,-2.64
2024-01-20T05:50:24.816Z,-2.59
2024-01-20T05:51:24.871Z,-2.58
2024-01-20T05:52:24.801Z,-2.58
2024-01-20T05:53:24.807Z,-2.58
2024-01-20T05:54:24.824Z,-2.54
2024-01-20T05:55:24.781Z,-2.61
2024-01-20T05:56:24.799Z,-2.56
2024-01-20T05:57:24.836Z,-2.54
2024-01-20T05:58:24.764Z,-2.59
2024-01-20T05:59:24.773Z,-2.55
2024-01-20T06:00:24.813Z,-2.56
2024-01-20T06:01:24.751Z,-2.55
2024-01-20T06:02:24.714Z,-2.55
2024-01-20T06:03:24.792Z,-2.48
2024-01-20T06:04:24.728Z,-2.52
2024-01-20T06:05:24.790Z,-2.51
2024-01-20T06:06:24.764Z,-2.51
2024-01-20T06:07:24.667Z,-2.55
2024-01-20T06:08:24.688Z,-2.56
2024-01-20T06:09:24.706Z,-2.61
2024-01-20T06:10:24.673Z,-2.61
2024-01-20T06:11:24.648Z,-2.56
2024-01-20T06:12:24.659Z,-2.55
2024-01-20T06:13:24.629Z,-2.58
2024-01-20T06:14:24.612Z,-2.54
2024-01-20T06:15:24.606Z,-2.49
2024-01-20T06:16:24.579Z,-2.54
2024-01-20T06:17:24.595Z,-2.55
2024-01-20T06:18:24.601Z,-2.54
2024-01-20T06:19:24.611Z,-2.46
2024-01-20T06:20:24.545Z,-2.49
2024-01-20T06:21:24.569Z,-2.43
2024-01-20T06:22:24.565Z,-2.40
2024-01-20T06:23:24.515Z,-2.43
2024-01-20T06:24:24.539Z,-2.48
2024-01-20T06:25:24.514Z,-2.45
2024-01-20T06:26:24.509Z,-2.59
2024-01-20T06:27:24.535Z,-2.51
2024-01-20T06:28:24.491Z,-2.54
2024-01-20T06:29:24.449Z,-2.48
2024-01-20T06:30:24.480Z,-2.51
2024-01-20T06:31:24.462Z,-2.46
2024-01-20T06:32:24.375Z,-2.43
2024-01-20T06:33:24.559Z,-2.41
2024-01-20T06:34:24.437Z,-2.48
2024-01-20T06:35:24.356Z,-2.48
2024-01-20T06:36:24.374Z,-2.41
2024-01-20T06:37:24.387Z,-2.54
2024-01-20T06:38:24.374Z,-2.64
2024-01-20T06:39:24.373Z,-2.61
2024-01-20T06:40:24.494Z,-2.55
2024-01-20T06:41:24.315Z,-2.49
2024-01-20T06:42:24.363Z,-2.59
2024-01-20T06:43:24.321Z,-2.56
2024-01-20T06:44:24.269Z,-2.55
2024-01-20T06:45:24.610Z,-2.56
2024-01-20T06:46:24.243Z,-2.52
2024-01-20T06:47:24.244Z,-2.46
2024-01-20T06:48:24.319Z,-2.48
2024-01-20T06:49:24.386Z,-2.46
2024-01-20T06:50:24.250Z,-2.45
2024-01-20T06:51:24.397Z,-2.46
2024-01-20T06:52:24.197Z,-2.46
2024-01-20T06:53:24.181Z,-2.49
2024-01-20T06:54:24.221Z,-2.55
2024-01-20T06:55:24.164Z,-2.54
2024-01-20T06:56:24.148Z,-2.46
2024-01-20T06:57:24.147Z,-2.41
2024-01-20T06:58:24.129Z,-2.41
2024-01-20T06:59:24.179Z,-2.40
2024-01-20T07:00:24.141Z,-2.38
2024-01-20T07:01:24.118Z,-2.33
2024-01-20T07:02:24.094Z,-2.30
2024-01-20T07:03:24.117Z,-2.45
2024-01-20T07:04:24.098Z,-2.34
2024-01-20T07:05:24.087Z,-2.30
2024-01-20T07:06:24.048Z,-2.34
2024-01-20T07:07:24.035Z,-2.38
2024-01-20T07:08:24.043Z,-2.48
2024-01-20T07:09:24.052Z,-2.46
2024-01-20T07:10:24.015Z,-2.55
2024-01-20T07:11:23.998Z,-2.55
2024-01-20T07:12:24.066Z,-2.49
2024-01-20T07:13:23.997Z,-2.46
2024-01-20T07:14:23.980Z,-2.48
2024-01-20T07:15:24.017Z,-2.55
2024-01-20T07:16:23.959Z,-2.58
2024-01-20T07:17:24.026Z,-2.56
2024-01-20T07:18:23.998Z,-2.58
2024-01-20T07:19:24.052Z,-2.59
2024-01-20T07:20:23.926Z,-2.72
2024-01-20T07:21:23.998Z,-2.73
2024-01-20T07:22:23.933Z,-2.76
2024-01-20T07:23:23.899Z,-2.70
2024-01-20T07:24:23.923Z,-2.66
2024-01-20T07:25:23.874Z,-2.72
2024-01-20T07:26:23.881Z,-2.69
2024-01-20T07:27:23.937Z,-2.64
2024-01-20T07:28:23.861Z,-2.61
2024-01-20T07:29:23.828Z,-2.70
2024-01-20T07:30:23.835Z,-2.67
2024-01-20T07:31:23.824Z,-2.66
2024-01-20T07:32:23.834Z,-2.59
2024-01-20T07:33:23.905Z,-2.63
2024-01-20T07:34:23.926Z,-2.56
2024-01-20T07:35:23.787Z,-2.54
2024-01-20T07:36:23.829Z,-2.61
2024-01-20T07:37:23.778Z,-2.56
2024-01-20T07:38:23.756Z,-2.55
2024-01-20T07:39:23.789Z,-2.51
2024-01-20T07:40:23.739Z,-2.46
2024-01-20T07:41:23.739Z,-2.56
2024-01-20T07:42:23.792Z,-2.55
2024-01-20T07:43:23.699Z,-2.54
2024-01-20T07:44:23.740Z,-2.49
2024-01-20T07:45:23.709Z,-2.52
2024-01-20T07:46:23.701Z,-2.52
2024-01-20T07:47:23.675Z,-2.56
2024-01-20T07:48:23.908Z,-2.58
2024-01-20T07:49:23.918Z,-2.54
2024-01-20T07:50:23.708Z,-2.51
2024-01-20T07:51:23.665Z,-2.51
2024-01-20T07:52:23.622Z,-2.54
2024-01-20T07:53:23.612Z,-2.49
2024-01-20T07:54:23.735Z,-2.49
2024-01-20T07:55:23.629Z,-2.46
2024-01-20T07:56:23.590Z,-2.51
2024-01-20T07:57:23.637Z,-2.52
2024-01-20T07:58:23.569Z,-2.56
2024-01-20T07:59:23.551Z,-2.56
2024-01-20T08:00:23.631Z,-2.51
2024-01-20T08:01:23.576Z,-2.55
2024-01-20T08:02:23.548Z,-2.54
2024-01-20T08:03:23.582Z,-2.56
2024-01-20T08:04:23.592Z,-2.55
2024-01-20T08:05:23.520Z,-2.61
2024-01-20T08:06:23.525Z,-2.58
2024-01-20T08:07:23.506Z,-2.51
2024-01-20T08:08:23.485Z,-2.54
2024-01-20T08:09:23.517Z,-2.51
2024-01-20T08:10:23.470Z,-2.46
2024-01-20T08:11:23.465Z,-2.40
2024-01-20T08:12:23.448Z,-2.45
2024-01-20T08:13:23.429Z,-2.38
2024-01-20T08:14:23.451Z,-2.43
2024-01-20T08:15:23.406Z,-2.37
2024-01-20T08:16:23.435Z,-2.37
2024-01-20T08:17:23.383Z,-2.40
2024-01-20T08:18:23.484Z,-2.40
2024-01-20T08:19:23.443Z,-2.46
2024-01-20T08:20:23.364Z,-2.41
2024-01-20T08:21:23.379Z,-2.43
2024-01-20T08:22:23.333Z,-2.45
2024-01-20T08:23:23.343Z,-2.46
2024-01-20T08:24:23.313Z,-2.45
2024-01-20T08:25:23.301Z,-2.37
2024-01-20T08:26:23.301Z,-2.35
2024-01-20T08:27:23.312Z,-2.41
2024-01-20T08:28:23.296Z,-2.34
2024-01-20T08:29:23.268Z,-2.38
2024-01-20T08:30:23.337Z,-2.27
2024-01-20T08:31:23.323Z,-2.27
2024-01-20T08:32:23.286Z,-2.30
2024-01-20T08:33:23.353Z,-2.52
2024-01-20T08:34:23.302Z,-2.43
2024-01-20T08:35:23.202Z,-2.46
2024-01-20T08:36:23.221Z,-2.43
2024-01-20T08:37:23.206Z,-2.40
2024-01-20T08:38:23.186Z,-2.45
2024-01-20T08:39:23.200Z,-2.38
2024-01-20T08:40:23.169Z,-2.26
2024-01-20T08:41:23.149Z,-2.35
2024-01-20T08:42:23.188Z,-2.40
2024-01-20T08:43:23.131Z,-2.40
2024-01-20T08:44:23.129Z,-2.41
2024-01-20T08:45:23.155Z,-2.37
2024-01-20T08:46:23.126Z,-2.35
2024-01-20T08:47:23.118Z,-2.34
2024-01-20T08:48:23.088Z,-2.37
2024-01-20T08:49:23.157Z,-2.34
2024-01-20T08:50:23.079Z,-2.43
2024-01-20T08:51:23.114Z,-2.34
2024-01-20T08:52:23.050Z,-2.43
2024-01-20T08:53:23.038Z,-2.40
2024-01-20T08:54:23.061Z,-2.37
2024-01-20T08:55:23.018Z,-2.35
2024-01-20T08:56:23.035Z,-2.46
2024-01-20T08:57:23.062Z,-2.49
2024-01-20T08:58:22.997Z,-2.41
2024-01-20T08:59:22.990Z,-2.46
2024-01-20T09:00:23.048Z,-2.33
2024-01-20T09:01:22.988Z,-2.26
2024-01-20T09:02:22.961Z,-2.30
2024-01-20T09:03:23.081Z,-2.29
2024-01-20T09:04:22.940Z,-2.29
2024-01-20T09:05:23.015Z,-2.33
2024-01-20T09:06:23.011Z,-2.27
2024-01-20T09:07:22.913Z,-2.35
2024-01-20T09:08:22.907Z,-2.24
2024-01-20T09:09:22.925Z,-2.24
2024-01-20T09:10:22.901Z,-2.29
2024-01-20T09:11:22.876Z,-2.30
2024-01-20T09:12:22.890Z,-2.33
2024-01-20T09:13:22.849Z,-2.29
2024-01-20T09:14:22.875Z,-2.26
2024-01-20T09:15:22.917Z,-2.30
2024-01-20T09:16:22.828Z,-2.16
2024-01-20T09:17:22.803Z,-2.19
2024-01-20T09:18:24.903Z,-2.18
2024-01-20T09:19:22.933Z,-2.24
2024-01-20T09:20:22.829Z,-2.26
2024-01-20T09:21:22.783Z,-2.21
2024-01-20T09:22:22.756Z,-2.27
2024-01-20T09:23:22.743Z,-2.30
2024-01-20T09:24:22.785Z,-2.34
2024-01-20T09:25:22.718Z,-2.29
2024-01-20T09:26:22.712Z,-2.41
2024-01-20T09:27:22.735Z,-2.35
2024-01-20T09:28:22.705Z,-2.40
2024-01-20T09:29:22.706Z,-2.35
2024-01-20T09:30:22.682Z,-2.29
2024-01-20T09:31:22.666Z,-2.21
2024-01-20T09:32:22.649Z,-2.19
2024-01-20T09:33:22.752Z,-2.27
2024-01-20T09:34:22.711Z,-2.24
2024-01-20T09:35:22.601Z,-2.22
2024-01-20T09:36:22.642Z,-2.14
2024-01-20T09:37:22.593Z,-2.11
2024-01-20T09:38:22.592Z,-2.14
2024-01-20T09:39:22.582Z,-2.11
2024-01-20T09:40:22.564Z,-2.11
2024-01-20T09:41:22.598Z,-2.11
2024-01-20T09:42:22.597Z,-2.00
2024-01-20T09:43:22.548Z,-2.04
2024-01-20T09:44:22.520Z,-2.00
2024-01-20T09:45:22.518Z,-2.09
2024-01-20T09:46:22.496Z,-2.16
2024-01-20T09:47:22.521Z,-2.14
2024-01-20T09:48:22.606Z,-2.15
2024-01-20T09:49:22.561Z,-2.15
2024-01-20T09:50:22.458Z,-2.21
2024-01-20T09:51:22.469Z,-2.19
2024-01-20T09:52:22.460Z,-2.22
2024-01-20T09:53:22.438Z,-2.22
2024-01-20T09:54:22.469Z,-2.29
2024-01-20T09:55:22.397Z,-2.29
2024-01-20T09:56:22.410Z,-2.21
2024-01-20T09:57:22.484Z,-2.27
2024-01-20T09:58:22.379Z,-2.14
2024-01-20T09:59:22.451Z,-2.15
2024-01-20T10:00:22.393Z,-2.12
2024-01-20T10:01:22.397Z,-2.14
2024-01-20T10:02:22.333Z,-2.16
2024-01-20T10:03:22.381Z,-2.12
2024-01-20T10:04:22.426Z,-2.06
2024-01-20T10:05:22.299Z,-2.09
2024-01-20T10:06:22.358Z,-2.14
2024-01-20T10:07:22.293Z,-2.15
2024-01-20T10:08:22.261Z,-2.06
2024-01-20T10:09:22.310Z,-2.06
2024-01-20T10:10:22.280Z,-1.94
2024-01-20T10:11:22.272Z,-1.79
2024-01-20T10:12:22.251Z,-1.78
2024-01-20T10:13:22.229Z,-1.73
2024-01-20T10:14:22.200Z,-1.70
2024-01-20T10:15:22.245Z,-1.75
2024-01-20T10:16:22.179Z,-1.75
2024-01-20T10:17:22.189Z,-1.85
2024-01-20T10:18:22.233Z,-1.88
2024-01-20T10:19:22.175Z,-1.91
2024-01-20T10:20:22.167Z,-1.91
2024-01-20T10:21:22.146Z,-1.91
2024-01-20T10:22:22.132Z,-1.88
2024-01-20T10:23:22.130Z,-1.82
2024-01-20T10:24:22.547Z,-1.83
2024-01-20T10:25:22.654Z,-1.88
2024-01-20T10:26:22.074Z,-1.91
2024-01-20T10:27:22.110Z,-2.08
2024-01-20T10:28:22.062Z,-2.01
2024-01-20T10:29:22.085Z,-1.96
2024-01-20T10:30:22.163Z,-1.86
2024-01-20T10:31:22.043Z,-1.90
2024-01-20T10:32:22.041Z,-1.83
2024-01-20T10:33:22.212Z,-1.79
2024-01-20T10:34:22.184Z,-1.67
2024-01-20T10:35:22.210Z,-1.76
2024-01-20T10:36:22.067Z,-1.75
2024-01-20T10:37:21.994Z,-1.57
2024-01-20T10:38:21.993Z,-1.57
2024-01-20T10:39:22.004Z,-1.61
2024-01-20T10:40:21.960Z,-1.69
2024-01-20T10:41:21.958Z,-1.65
2024-01-20T10:42:21.957Z,-1.83
2024-01-20T10:43:21.979Z,-1.83
2024-01-20T10:44:21.926Z,-1.86
2024-01-20T10:45:21.966Z,-1.85
2024-01-20T10:46:21.908Z,-1.82
2024-01-20T10:47:21.902Z,-1.70
2024-01-20T10:48:22.070Z,-1.75
2024-01-20T10:49:21.916Z,-1.78
2024-01-20T10:50:21.861Z,-1.78
2024-01-20T10:51:21.894Z,-1.78
2024-01-20T10:52:21.867Z,-1.61
2024-01-20T10:53:21.874Z,-1.54
2024-01-20T10:54:21.901Z,-1.51
2024-01-20T10:55:21.828Z,-1.47
2024-01-20T10:56:21.806Z,-1.33
2024-01-20T10:57:21.844Z,-1.29
2024-01-20T10:58:21.782Z,-1.18
2024-01-20T10:59:21.778Z,-1.29
2024-01-20T11:00:21.784Z,-1.40
2024-01-20T11:01:21.795Z,-1.31
2024-01-20T11:02:21.762Z,-1.37
2024-01-20T11:03:21.840Z,-1.54
2024-01-20T11:04:21.841Z,-1.39
2024-01-20T11:05:21.738Z,-1.44
2024-01-20T11:06:21.936Z,-1.40
2024-01-20T11:07:21.733Z,-1.39
2024-01-20T11:08:21.701Z,-1.36
2024-01-20T11:09:21.735Z,-1.34
2024-01-20T11:10:21.710Z,-1.33
2024-01-20T11:11:21.726Z,-1.33
2024-01-20T11:12:21.685Z,-1.28
2024-01-20T11:13:21.657Z,-1.18
2024-01-20T11:14:21.643Z,-1.11
2024-01-20T11:15:21.696Z,-0.89
2024-01-20T11:16:21.647Z,-0.85
2024-01-20T11:17:21.619Z,-0.73
2024-01-20T11:18:21.642Z,-0.78
2024-01-20T11:19:21.620Z,-0.81
2024-01-20T11:20:21.609Z,-0.79
2024-01-20T11:21:21.617Z,-0.81
2024-01-20T11:22:21.566Z,-0.84
2024-01-20T11:23:21.558Z,-0.82
2024-01-20T11:24:21.561Z,-0.76
2024-01-20T11:25:21.553Z,-0.84
2024-01-20T11:26:21.532Z,-0.86
2024-01-20T11:27:21.566Z,-0.86
2024-01-20T11:28:21.528Z,-0.90
2024-01-20T11:29:21.525Z,-0.86
2024-01-20T11:30:21.534Z,-0.94
2024-01-20T11:31:21.492Z,-1.03
2024-01-20T11:32:21.469Z,-1.18
2024-01-20T11:33:21.585Z,-1.21
2024-01-20T11:34:21.523Z,-1.26
2024-01-20T11:35:21.462Z,-1.21
2024-01-20T11:36:21.475Z,-1.08
2024-01-20T11:37:21.432Z,-0.98
2024-01-20T11:38:21.409Z,-0.94
2024-01-20T11:39:21.470Z,-0.98
2024-01-20T11:40:21.390Z,-0.98
2024-01-20T11:41:21.407Z,-0.90
2024-01-20T11:42:21.383Z,-1.00
2024-01-20T11:43:21.376Z,-0.98
2024-01-20T11:44:21.369Z,-0.85
2024-01-20T11:45:21.452Z,-0.76
2024-01-20T11:46:21.321Z,-0.84
2024-01-20T11:47:21.344Z,-0.82
2024-01-20T11:48:21.417Z,-0.82
2024-01-20T11:49:21.397Z,-0.81
2024-01-20T11:50:21.306Z,-0.82
2024-01-20T11:51:21.406Z,-0.79
2024-01-20T11:52:21.277Z,-0.85
2024-01-20T11:53:21.289Z,-0.89
2024-01-20T11:54:21.285Z,-0.81
2024-01-20T11:55:21.257Z,-0.73
2024-01-20T11:56:21.256Z,-0.64
2024-01-20T11:57:21.264Z,-0.52
2024-01-20T11:58:21.300Z,-0.79
2024-01-20T11:59:21.231Z,-0.64
2024-01-20T12:00:21.203Z,-0.95
2024-01-20T12:01:21.300Z,-0.85
2024-01-20T12:02:21.181Z,-0.81
2024-01-20T12:03:21.306Z,-0.58
2024-01-20T12:04:21.181Z,-0.49
2024-01-20T12:05:21.215Z,-0.47
2024-01-20T12:06:21.241Z,-0.46
2024-01-20T12:07:21.236Z,-0.43
2024-01-20T12:08:21.145Z,-0.49
2024-01-20T12:09:21.162Z,-0.50
2024-01-20T12:10:21.108Z,-0.42
2024-01-20T12:11:21.129Z,-0.27
2024-01-20T12:12:21.115Z,-0.34
2024-01-20T12:13:21.075Z,-0.38
2024-01-20T12:14:21.055Z,-0.35
2024-01-20T12:15:21.086Z,-0.39
2024-01-20T12:16:21.046Z,-0.49
2024-01-20T12:17:21.061Z,-0.52
2024-01-20T12:18:21.169Z,-0.52
2024-01-20T12:19:21.125Z,-0.43
2024-01-20T12:20:21.017Z,-0.47
2024-01-20T12:21:21.045Z,-0.45
2024-01-20T12:22:21.008Z,-0.55
2024-01-20T12:23:20.990Z,-0.63
2024-01-20T12:24:20.982Z,-0.47
2024-01-20T12:25:20.989Z,-0.55
2024-01-20T12:26:20.969Z,-0.79
2024-01-20T12:27:21.044Z,-0.75
2024-01-20T12:28:20.935Z,-0.79
2024-01-20T12:29:20.956Z,-1.08
2024-01-20T12:30:20.925Z,-1.08
2024-01-20T12:31:22.833Z,-1.13
2024-01-20T12:32:20.904Z,-1.10
2024-01-20T12:33:20.946Z,-1.08
2024-01-20T12:34:20.928Z,-1.08
2024-01-20T12:35:20.877Z,-1.03
2024-01-20T12:36:20.874Z,-1.07
2024-01-20T12:37:20.835Z,-0.97
2024-01-20T12:38:20.825Z,-0.90
2024-01-20T12:39:20.876Z,-1.03
2024-01-20T12:40:20.813Z,-1.07
2024-01-20T12:41:20.792Z,-1.05
2024-01-20T12:42:20.821Z,-1.08
2024-01-20T12:43:20.778Z,-1.10
2024-01-20T12:44:20.758Z,-1.04
2024-01-20T12:45:20.792Z,-0.97
2024-01-20T12:46:20.737Z,-0.98
2024-01-20T12:47:20.740Z,-0.94
2024-01-20T12:48:20.792Z,-0.97
2024-01-20T12:49:20.854Z,-0.90
2024-01-20T12:50:20.733Z,-0.95
2024-01-20T12:51:20.775Z,-0.95
2024-01-20T12:52:20.683Z,-0.89